createdAt,value
2023-02-14T00:01:30.907Z,98.63
2023-02-14T00:04:00.752Z,97.73
2023-02-14T00:06:29.842Z,95.17
2023-02-14T00:08:58.022Z,96.93
2023-02-14T00:11:26.073Z,100.10
2023-02-14T00:14:13.172Z,97.73
2023-02-14T00:16:41.316Z,98.50
2023-02-14T00:19:09.609Z,99.67
2023-02-14T00:21:39.775Z,101.10
2023-02-14T00:24:10.897Z,101.33
2023-02-14T00:26:39.640Z,99.93
2023-02-14T00:29:10.775Z,99.77
2023-02-14T00:31:39.109Z,98.17
2023-02-14T00:34:08.324Z,97.20
2023-02-14T00:36:37.240Z,101.80
2023-02-14T00:39:06.386Z,100.90
2023-02-14T00:41:35.054Z,98.97
2023-02-14T00:44:03.485Z,98.07
2023-02-14T00:46:32.954Z,98.30
2023-02-14T00:49:01.106Z,98.17
2023-02-14T00:51:29.242Z,100.40
2023-02-14T00:53:57.324Z,100.17
2023-02-14T00:56:25.404Z,98.43
2023-02-14T00:58:53.403Z,98.17
2023-02-14T01:01:21.916Z,98.70
2023-02-14T01:03:51.379Z,97.50
2023-02-14T01:06:19.523Z,102.60
2023-02-14T01:08:47.796Z,98.63
2023-02-14T01:11:17.945Z,97.30
2023-02-14T01:13:46.506Z,97.77
2023-02-14T01:16:18.347Z,98.03
2023-02-14T01:18:46.682Z,97.87
2023-02-14T01:21:19.320Z,96.87
2023-02-14T01:23:48.795Z,99.27
2023-02-14T01:26:17.762Z,97.43
2023-02-14T01:28:46.373Z,96.30
2023-02-14T01:31:17.337Z,97.77
2023-02-14T01:33:47.880Z,96.20
2023-02-14T01:36:23.584Z,96.37
2023-02-14T01:38:54.041Z,99.60
2023-02-14T01:41:23.035Z,99.27
2023-02-14T01:43:57.156Z,99.20
2023-02-14T01:46:26.144Z,98.53
2023-02-14T01:48:57.676Z,100.83
2023-02-14T01:51:28.500Z,102.80
2023-02-14T01:53:57.858Z,102.50
2023-02-14T01:56:30.206Z,101.33
2023-02-14T01:59:01.071Z,100.90
2023-02-14T02:01:30.712Z,103.93
2023-02-14T02:04:02.352Z,101.63
2023-02-14T02:06:36.553Z,103.63
2023-02-14T02:09:11.530Z,103.50
2023-02-14T02:11:39.729Z,106.47
2023-02-14T02:14:07.970Z,103.90
2023-02-14T02:16:52.659Z,100.47
2023-02-14T02:20:10.986Z,104.73
2023-02-14T02:23:03.778Z,97.50
2023-02-14T02:26:00.240Z,100.50
2023-02-14T02:29:00.260Z,99.07
2023-02-14T02:31:47.989Z,101.53
2023-02-14T02:34:54.691Z,101.10
2023-02-14T02:37:39.026Z,103.00
2023-02-14T02:40:23.782Z,100.47
2023-02-14T02:42:59.820Z,102.97
2023-02-14T02:45:58.217Z,102.63
2023-02-14T02:48:33.065Z,103.47
2023-02-14T02:51:22.928Z,106.40
2023-02-14T02:53:56.571Z,104.03
2023-02-14T02:56:49.767Z,101.33
2023-02-14T02:59:22.969Z,103.57
2023-02-14T03:01:56.072Z,103.93
2023-02-14T03:04:41.868Z,106.27
2023-02-14T03:07:23.880Z,105.63
2023-02-14T03:09:56.772Z,106.00
2023-02-14T03:13:03.789Z,103.73
2023-02-14T03:15:53.767Z,104.30
2023-02-14T03:18:42.690Z,102.03
2023-02-14T03:21:19.019Z,106.00
2023-02-14T03:23:57.289Z,107.03
2023-02-14T03:26:35.084Z,106.07
2023-02-14T03:29:11.645Z,103.30
2023-02-14T03:31:51.799Z,104.37
2023-02-14T03:34:29.155Z,104.83
2023-02-14T03:37:02.059Z,100.17
2023-02-14T03:39:36.741Z,102.77
2023-02-14T03:42:10.007Z,103.40
2023-02-14T03:44:41.592Z,100.43
2023-02-14T03:47:13.195Z,99.40
2023-02-14T03:49:45.865Z,103.50
2023-02-14T03:52:15.519Z,100.27
2023-02-14T03:54:46.178Z,97.30
2023-02-14T03:57:21.820Z,96.80
2023-02-14T03:59:50.210Z,98.87
2023-02-14T04:02:25.658Z,97.13
2023-02-14T04:04:55.299Z,95.80
2023-02-14T04:07:25.541Z,96.27
2023-02-14T04:09:53.755Z,98.70
2023-02-14T04:12:36.825Z,96.37
2023-02-14T04:15:07.019Z,98.17
2023-02-14T04:17:52.718Z,96.47
2023-02-14T04:20:21.069Z,98.00
2023-02-14T04:22:51.495Z,98.70
2023-02-14T04:25:20.027Z,98.37
2023-02-14T04:27:49.510Z,97.47
2023-02-14T04:30:20.788Z,98.70
2023-02-14T04:32:48.900Z,92.37
2023-02-14T04:35:17.143Z,98.70
2023-02-14T04:37:45.283Z,94.83
2023-02-14T04:40:16.934Z,102.53
2023-02-14T04:42:45.087Z,98.10
2023-02-14T04:45:14.904Z,99.70
2023-02-14T04:47:42.959Z,98.90
2023-02-14T04:50:11.475Z,97.23
2023-02-14T04:52:40.109Z,101.27
2023-02-14T04:55:09.512Z,100.57
2023-02-14T04:57:37.640Z,101.03
2023-02-14T05:00:07.872Z,99.47
2023-02-14T05:02:37.303Z,100.17
2023-02-14T05:05:06.113Z,97.93
2023-02-14T05:07:34.179Z,99.90
2023-02-14T05:10:02.290Z,102.90
2023-02-14T05:12:30.348Z,98.13
2023-02-14T05:14:58.424Z,98.90
2023-02-14T05:17:26.473Z,98.57
2023-02-14T05:19:55.717Z,99.03
2023-02-14T05:22:23.773Z,99.50
2023-02-14T05:24:51.804Z,98.33
2023-02-14T05:27:19.906Z,100.87
2023-02-14T05:29:47.984Z,98.40
2023-02-14T05:32:16.202Z,99.10
2023-02-14T05:34:44.325Z,96.70
2023-02-14T05:37:13.738Z,91.30
2023-02-14T05:39:41.968Z,96.50
2023-02-14T05:44:37.021Z,97.33
2023-02-14T05:47:05.286Z,99.43
2023-02-14T05:49:33.358Z,98.80
2023-02-14T05:52:01.432Z,97.47
2023-02-14T05:54:30.847Z,97.70
2023-02-14T05:56:59.107Z,98.53
2023-02-14T05:59:27.202Z,100.07
2023-02-14T06:01:55.307Z,99.10
2023-02-14T06:04:23.843Z,96.80
2023-02-14T06:06:51.921Z,99.40
2023-02-14T06:09:20.379Z,100.40
2023-02-14T06:11:49.842Z,99.70
2023-02-14T06:14:17.934Z,97.97
2023-02-14T06:16:46.064Z,99.50
2023-02-14T06:19:14.237Z,98.53
2023-02-14T06:21:42.363Z,98.83
2023-02-14T06:24:10.374Z,100.60
2023-02-14T06:26:38.493Z,97.23
2023-02-14T06:29:07.918Z,97.03
2023-02-14T06:31:36.627Z,99.00
2023-02-14T06:34:04.826Z,95.77
2023-02-14T06:36:34.319Z,96.17
2023-02-14T06:39:02.402Z,95.60
2023-02-14T06:41:30.551Z,97.17
2023-02-14T06:43:58.754Z,105.07
2023-02-14T06:46:28.517Z,101.87
2023-02-14T06:48:56.683Z,106.23
2023-02-14T06:51:24.795Z,103.73
2023-02-14T06:53:52.880Z,105.57
2023-02-14T06:56:20.944Z,100.90
2023-02-14T06:58:49.068Z,101.23
2023-02-14T07:01:17.223Z,102.77
2023-02-14T07:03:46.776Z,103.23
2023-02-14T07:06:14.881Z,98.80
2023-02-14T07:08:43.331Z,101.83
2023-02-14T07:11:11.415Z,113.43
2023-02-14T07:13:39.572Z,105.10
2023-02-14T07:16:07.921Z,105.17
2023-02-14T07:18:35.941Z,104.77
2023-02-14T07:21:05.356Z,107.37
2023-02-14T07:23:33.444Z,108.50
2023-02-14T07:26:01.490Z,112.63
2023-02-14T07:28:30.393Z,112.47
2023-02-14T07:31:01.200Z,109.93
2023-02-14T07:33:29.742Z,111.30
2023-02-14T07:35:58.023Z,113.00
2023-02-14T07:38:30.525Z,111.27
2023-02-14T07:40:59.126Z,110.30
2023-02-14T07:43:27.537Z,115.50
2023-02-14T07:45:55.621Z,110.50
2023-02-14T07:48:23.741Z,110.90
2023-02-14T07:50:51.817Z,116.53
2023-02-14T07:53:19.931Z,117.50
2023-02-14T07:55:51.630Z,115.50
2023-02-14T07:58:20.312Z,115.87
2023-02-14T08:00:48.353Z,113.60
2023-02-14T08:03:16.733Z,112.60
2023-02-14T08:05:45.094Z,118.27
2023-02-14T08:08:13.138Z,121.67
2023-02-14T08:10:41.312Z,118.90
2023-02-14T08:13:10.728Z,118.90
2023-02-14T08:15:56.214Z,123.90
2023-02-14T08:18:24.179Z,123.03
2023-02-14T08:20:52.543Z,129.37
2023-02-14T08:23:21.446Z,127.13
2023-02-14T08:25:51.682Z,129.60
2023-02-14T08:28:24.602Z,127.87
2023-02-14T08:30:52.653Z,128.20
2023-02-14T08:33:21.215Z,126.40
2023-02-14T08:35:49.648Z,126.40
2023-02-14T08:38:19.585Z,128.57
2023-02-14T08:40:48.134Z,124.20
2023-02-14T08:43:16.137Z,126.53
2023-02-14T08:45:45.366Z,125.20
2023-02-14T08:48:14.145Z,118.63
2023-02-14T08:50:42.205Z,122.33
2023-02-14T08:53:11.350Z,120.83
2023-02-14T08:55:39.580Z,124.70
2023-02-14T08:58:08.684Z,121.70
2023-02-14T09:00:36.829Z,119.17
2023-02-14T09:03:06.202Z,116.03
2023-02-14T09:05:34.662Z,115.10
2023-02-14T09:08:03.650Z,118.77
2023-02-14T09:10:31.637Z,113.70
2023-02-14T09:12:59.713Z,116.07
2023-02-14T09:15:28.032Z,117.07
2023-02-14T09:17:56.081Z,114.63
2023-02-14T09:20:26.116Z,116.20
2023-02-14T09:22:56.417Z,114.60
2023-02-14T09:25:24.412Z,116.07
2023-02-14T09:27:52.410Z,115.53
2023-02-14T09:30:20.453Z,115.30
2023-02-14T09:32:48.488Z,118.17
2023-02-14T09:35:16.687Z,119.50
2023-02-14T09:38:03.579Z,111.90
2023-02-14T09:40:34.414Z,111.77
2023-02-14T09:43:09.861Z,113.27
2023-02-14T09:45:39.766Z,115.00
2023-02-14T09:48:11.833Z,109.50
2023-02-14T09:50:44.953Z,108.40
2023-02-14T09:53:24.321Z,114.80
2023-02-14T09:55:59.427Z,112.60
2023-02-14T09:58:34.555Z,110.80
2023-02-14T10:01:14.347Z,107.00
2023-02-14T10:04:09.876Z,109.97
2023-02-14T10:06:48.931Z,113.23
2023-02-14T10:09:47.383Z,108.77
2023-02-14T10:12:22.425Z,105.17
2023-02-14T10:14:51.633Z,105.27
2023-02-14T10:17:24.400Z,107.93
2023-02-14T10:19:58.868Z,104.97
2023-02-14T10:22:39.650Z,102.47
2023-02-14T10:25:18.913Z,103.10
2023-02-14T10:27:48.806Z,101.87
2023-02-14T10:30:18.818Z,95.47
2023-02-14T10:32:49.046Z,97.53
2023-02-14T10:35:24.435Z,96.30
2023-02-14T10:38:00.902Z,92.83
2023-02-14T10:40:48.417Z,91.17
2023-02-14T10:43:29.088Z,87.07
2023-02-14T10:46:04.985Z,82.20
2023-02-14T10:48:42.607Z,72.63
2023-02-14T10:51:17.582Z,64.20
2023-02-14T10:53:55.180Z,59.23
2023-02-14T10:56:29.225Z,52.47
2023-02-14T10:58:58.819Z,39.53
2023-02-14T11:01:27.035Z,35.20
2023-02-14T11:04:03.547Z,31.30
2023-02-14T11:06:31.850Z,25.70
2023-02-14T11:09:00.127Z,23.73
2023-02-14T11:11:34.536Z,22.33
2023-02-14T11:16:51.833Z,20.53
2023-02-14T11:19:27.652Z,20.63
2023-02-14T11:21:57.635Z,19.80
2023-02-14T11:24:31.463Z,20.90
2023-02-14T11:27:03.545Z,19.67
2023-02-14T11:29:34.158Z,18.50
2023-02-14T11:32:10.303Z,19.23
2023-02-14T11:34:40.972Z,20.07
2023-02-14T11:37:26.509Z,18.67
2023-02-14T11:39:57.212Z,21.20
2023-02-14T11:42:41.282Z,18.03
2023-02-14T11:45:28.922Z,17.80
2023-02-14T11:48:31.444Z,18.03
2023-02-14T11:51:07.048Z,17.90
2023-02-14T11:53:45.044Z,17.93
2023-02-14T11:56:13.765Z,18.33
2023-02-14T11:58:49.082Z,17.87
2023-02-14T12:01:25.192Z,21.43
2023-02-14T12:03:55.765Z,18.47
2023-02-14T12:06:25.897Z,19.00
2023-02-14T12:09:12.303Z,18.30
2023-02-14T12:11:41.454Z,17.80
2023-02-14T12:14:21.978Z,17.33
2023-02-14T12:16:57.287Z,17.73
2023-02-14T12:19:33.884Z,17.70
2023-02-14T12:22:05.359Z,18.90
2023-02-14T12:24:37.320Z,19.57
2023-02-14T12:27:20.085Z,17.80
2023-02-14T12:29:53.967Z,18.27
2023-02-14T12:32:24.506Z,26.43
2023-02-14T12:34:54.318Z,18.67
2023-02-14T12:37:38.097Z,18.00
2023-02-14T12:40:16.442Z,17.73
2023-02-14T12:43:08.103Z,17.57
2023-02-14T12:45:56.155Z,18.50
2023-02-14T12:48:37.965Z,18.10
2023-02-14T12:51:11.881Z,17.70
2023-02-14T12:54:04.853Z,17.80
2023-02-14T12:56:43.197Z,17.90
2023-02-14T12:59:25.662Z,18.23
2023-02-14T13:02:17.684Z,18.03
2023-02-14T13:05:02.045Z,18.80
2023-02-14T13:07:41.609Z,18.80
2023-02-14T13:10:19.761Z,17.90
2023-02-14T13:12:55.695Z,17.87
2023-02-14T13:15:34.582Z,17.40
2023-02-14T13:18:11.398Z,18.67
2023-02-14T13:20:50.495Z,18.20
2023-02-14T13:23:23.570Z,17.80
2023-02-14T13:25:57.228Z,19.03
2023-02-14T13:28:27.185Z,18.30
2023-02-14T13:30:56.872Z,18.53
2023-02-14T13:33:30.456Z,17.70
2023-02-14T13:36:03.087Z,18.47
2023-02-14T13:38:33.412Z,18.43
2023-02-14T13:41:05.480Z,19.60
2023-02-14T13:43:56.567Z,17.97
2023-02-14T13:46:51.358Z,17.90
2023-02-14T13:49:30.968Z,18.00
2023-02-14T13:52:04.039Z,18.50
2023-02-14T13:54:44.707Z,18.23
2023-02-14T13:57:37.041Z,18.27
2023-02-14T14:00:39.681Z,17.80
2023-02-14T14:03:14.209Z,17.37
2023-02-14T14:06:12.349Z,19.07
2023-02-14T14:08:43.984Z,18.33
2023-02-14T14:11:47.344Z,17.73
2023-02-14T14:14:40.337Z,20.50
2023-02-14T14:17:25.820Z,17.87
2023-02-14T14:19:54.464Z,18.40
2023-02-14T14:22:23.977Z,18.93
2023-02-14T14:25:00.742Z,18.47
2023-02-14T14:27:33.637Z,18.33
2023-02-14T14:30:03.223Z,19.93
2023-02-14T14:32:33.464Z,19.03
2023-02-14T14:35:04.656Z,18.30
2023-02-14T14:37:35.609Z,18.40
2023-02-14T14:40:07.152Z,18.83
2023-02-14T14:42:38.361Z,18.00
2023-02-14T14:45:09.694Z,19.10
2023-02-14T14:47:44.127Z,18.07
2023-02-14T14:50:18.644Z,18.53
2023-02-14T14:52:50.900Z,18.07
2023-02-14T14:55:22.742Z,19.10
2023-02-14T14:57:52.801Z,18.50
2023-02-14T15:00:28.527Z,19.90
2023-02-14T15:03:02.034Z,19.07
2023-02-14T15:05:34.017Z,19.40
2023-02-14T15:08:17.341Z,19.00
2023-02-14T15:10:50.548Z,19.80
2023-02-14T15:13:36.345Z,19.03
2023-02-14T15:16:05.736Z,19.77
2023-02-14T15:18:33.920Z,19.20
2023-02-14T15:21:03.517Z,18.80
2023-02-14T15:23:34.771Z,18.90
2023-02-14T15:26:03.661Z,21.00
2023-02-14T15:28:35.706Z,19.50
2023-02-14T15:31:07.255Z,20.67
2023-02-14T15:33:36.163Z,19.43
2023-02-14T15:36:07.523Z,18.90
2023-02-14T15:38:41.075Z,19.20
2023-02-14T15:41:09.798Z,19.83
2023-02-14T15:43:39.420Z,19.10
2023-02-14T15:46:21.188Z,18.80
2023-02-14T15:48:49.290Z,19.00
2023-02-14T15:51:20.742Z,19.97
2023-02-14T15:53:54.461Z,19.63
2023-02-14T15:56:26.086Z,19.90
2023-02-14T15:59:01.292Z,21.07
2023-02-14T16:01:30.581Z,19.93
2023-02-14T16:04:00.749Z,20.50
2023-02-14T16:06:38.170Z,19.87
2023-02-14T16:09:24.120Z,19.80
2023-02-14T16:11:53.522Z,19.20
2023-02-14T16:14:31.019Z,20.50
2023-02-14T16:17:01.411Z,18.53
2023-02-14T16:19:41.492Z,20.60
2023-02-14T16:22:11.942Z,21.07
2023-02-14T16:24:42.059Z,19.00
2023-02-14T16:27:13.266Z,18.50
2023-02-14T16:29:41.603Z,18.00
2023-02-14T16:32:18.199Z,17.53
2023-02-14T16:34:48.190Z,18.67
2023-02-14T16:37:23.069Z,17.70
2023-02-14T16:39:55.483Z,17.30
2023-02-14T16:42:23.528Z,16.77
2023-02-14T16:44:52.206Z,17.30
2023-02-14T16:47:22.519Z,17.00
2023-02-14T16:49:52.968Z,16.77
2023-02-14T16:52:24.057Z,17.03
2023-02-14T16:54:54.046Z,18.93
2023-02-14T16:57:27.918Z,18.77
2023-02-14T16:59:57.207Z,17.80
2023-02-14T17:02:28.334Z,18.70
2023-02-14T17:04:56.675Z,18.87
2023-02-14T17:07:25.033Z,19.07
2023-02-14T17:09:59.426Z,20.50
2023-02-14T17:12:31.505Z,19.50
2023-02-14T17:15:05.942Z,22.87
2023-02-14T17:17:34.884Z,19.17
2023-02-14T17:20:03.893Z,19.90
2023-02-14T17:22:32.050Z,20.50
2023-02-14T17:25:01.603Z,20.57
2023-02-14T17:27:29.694Z,19.20
2023-02-14T17:29:58.157Z,20.00
2023-02-14T17:32:26.278Z,19.60
2023-02-14T17:34:54.484Z,20.50
2023-02-14T17:37:22.646Z,21.30
2023-02-14T17:39:50.790Z,19.10
2023-02-14T17:42:20.218Z,19.37
2023-02-14T17:44:48.236Z,20.27
2023-02-14T17:47:18.156Z,21.87
2023-02-14T17:49:47.613Z,20.67
2023-02-14T17:52:16.249Z,22.67
2023-02-14T17:54:44.648Z,21.40
2023-02-14T17:57:13.557Z,21.70
2023-02-14T17:59:45.294Z,21.40
2023-02-14T18:02:13.752Z,21.40
2023-02-14T18:04:41.828Z,20.37
2023-02-14T18:07:09.904Z,21.40
2023-02-14T18:09:38.112Z,21.90
2023-02-14T18:12:07.228Z,22.70
2023-02-14T18:14:35.369Z,23.67
2023-02-14T18:17:04.773Z,23.30
2023-02-14T18:19:33.807Z,25.30
2023-02-14T18:22:01.865Z,26.40
2023-02-14T18:24:29.955Z,26.33
2023-02-14T18:26:58.078Z,26.87
2023-02-14T18:29:26.204Z,25.67
2023-02-14T18:31:54.400Z,26.33
2023-02-14T18:34:24.045Z,26.47
2023-02-14T18:36:52.086Z,27.03
2023-02-14T18:39:21.004Z,27.07
2023-02-14T18:41:49.049Z,27.43
2023-02-14T18:44:17.183Z,26.87
2023-02-14T18:46:45.206Z,30.63
2023-02-14T18:49:14.220Z,39.80
2023-02-14T18:51:43.735Z,38.07
2023-02-14T18:54:11.772Z,40.73
2023-02-14T18:56:40.467Z,43.50
2023-02-14T18:59:10.677Z,43.40
2023-02-14T19:01:40.777Z,41.27
2023-02-14T19:04:12.147Z,43.60
2023-02-14T19:06:41.663Z,45.57
2023-02-14T19:09:13.301Z,46.27
2023-02-14T19:11:41.819Z,45.03
2023-02-14T19:14:11.069Z,44.40
2023-02-14T19:16:43.941Z,45.10
2023-02-14T19:19:12.435Z,44.77
2023-02-14T19:21:40.759Z,43.70
2023-02-14T19:24:11.394Z,47.58
2023-02-14T19:26:40.982Z,51.53
2023-02-14T19:29:10.841Z,59.07
2023-02-14T19:31:41.425Z,59.33
2023-02-14T19:34:16.768Z,64.07
2023-02-14T19:36:45.138Z,61.33
2023-02-14T19:39:15.359Z,62.73
2023-02-14T19:41:43.536Z,60.10
2023-02-14T19:44:13.843Z,62.47
2023-02-14T19:46:42.881Z,61.40
2023-02-14T19:49:14.408Z,57.70
2023-02-14T19:51:42.717Z,58.10
2023-02-14T19:54:12.551Z,56.87
2023-02-14T19:56:43.857Z,54.60
2023-02-14T19:59:14.513Z,54.90
2023-02-14T20:01:46.269Z,55.80
2023-02-14T20:04:16.579Z,52.17
2023-02-14T20:06:45.931Z,51.03
2023-02-14T20:09:15.013Z,51.40
2023-02-14T20:11:50.131Z,49.37
2023-02-14T20:14:19.946Z,48.90
2023-02-14T20:16:49.312Z,49.93
2023-02-14T20:19:19.416Z,54.70
2023-02-14T20:21:49.494Z,52.97
2023-02-14T20:24:20.229Z,54.07
2023-02-14T20:26:50.761Z,52.67
2023-02-14T20:29:19.768Z,54.00
2023-02-14T20:31:49.985Z,51.00
2023-02-14T20:34:18.458Z,50.60
2023-02-14T20:36:49.546Z,51.60
2023-02-14T20:39:17.762Z,53.00
2023-02-14T20:41:49.825Z,56.50
2023-02-14T20:44:21.628Z,57.43
2023-02-14T20:46:51.542Z,59.30
2023-02-14T20:49:20.164Z,59.27
2023-02-14T20:51:50.722Z,62.97
2023-02-14T20:54:19.517Z,62.47
2023-02-14T20:56:48.012Z,63.50
2023-02-14T20:59:16.180Z,60.37
2023-02-14T21:01:45.972Z,60.77
2023-02-14T21:04:16.495Z,60.60
2023-02-14T21:06:44.592Z,58.43
2023-02-14T21:09:12.629Z,61.60
2023-02-14T21:11:40.685Z,64.13
2023-02-14T21:14:09.102Z,67.27
2023-02-14T21:16:37.120Z,67.07
2023-02-14T21:19:06.509Z,71.40
2023-02-14T21:21:36.321Z,76.13
2023-02-14T21:24:07.141Z,74.50
2023-02-14T21:26:36.034Z,73.77
2023-02-14T21:29:04.853Z,75.53
2023-02-14T21:31:33.916Z,76.40
2023-02-14T21:34:04.810Z,79.47
2023-02-14T21:36:36.498Z,81.57
2023-02-14T21:39:05.907Z,79.80
2023-02-14T21:41:34.557Z,80.37
2023-02-14T21:44:03.518Z,78.40
2023-02-14T21:46:32.344Z,76.50
2023-02-14T21:49:19.668Z,71.47
2023-02-14T21:51:49.412Z,73.07
2023-02-14T21:54:18.516Z,73.93
2023-02-14T21:56:46.758Z,77.03
2023-02-14T21:59:15.088Z,83.50
2023-02-14T22:01:43.707Z,85.07
2023-02-14T22:04:13.026Z,86.57
2023-02-14T22:06:42.441Z,85.13
2023-02-14T22:09:14.238Z,86.13
2023-02-14T22:11:42.379Z,85.13
2023-02-14T22:14:10.435Z,86.90
2023-02-14T22:16:38.637Z,91.00
2023-02-14T22:19:07.586Z,89.70
2023-02-14T22:21:36.300Z,89.07
2023-02-14T22:24:04.808Z,88.13
2023-02-14T22:26:38.598Z,87.10
2023-02-14T22:29:07.428Z,90.37
2023-02-14T22:31:37.060Z,90.50
2023-02-14T22:34:05.997Z,84.47
2023-02-14T22:36:34.210Z,88.73
2023-02-14T22:39:02.950Z,88.63
2023-02-14T22:41:31.068Z,87.53
2023-02-14T22:44:00.501Z,88.03
2023-02-14T22:46:29.428Z,90.37
2023-02-14T22:48:58.127Z,90.93
2023-02-14T22:51:27.782Z,90.63
2023-02-14T22:53:57.500Z,97.17
2023-02-14T22:56:28.464Z,96.00
2023-02-14T22:58:57.667Z,96.57
2023-02-14T23:01:27.639Z,98.77
2023-02-14T23:03:57.433Z,102.87
2023-02-14T23:06:26.010Z,100.20
2023-02-14T23:08:55.633Z,101.20
2023-02-14T23:11:25.819Z,100.87
2023-02-14T23:14:11.393Z,98.07
2023-02-14T23:16:58.457Z,100.10
2023-02-14T23:19:45.938Z,97.87
2023-02-14T23:22:16.627Z,100.10
2023-02-14T23:24:46.153Z,100.13
2023-02-14T23:27:14.452Z,99.47
2023-02-14T23:29:42.477Z,101.10
2023-02-14T23:32:12.285Z,101.90
2023-02-14T23:34:42.634Z,101.97
2023-02-14T23:37:11.722Z,100.63
2023-02-14T23:39:39.804Z,100.57
2023-02-14T23:42:09.599Z,101.20
2023-02-14T23:44:37.805Z,101.03
2023-02-14T23:47:07.940Z,102.83
2023-02-14T23:49:39.090Z,99.20
2023-02-14T23:52:08.900Z,95.57
2023-02-14T23:54:37.545Z,96.43
2023-02-14T23:57:07.376Z,94.77
2023-02-14T23:59:35.494Z,94.40
